createdAt,value
2018-05-16T00:04:44.978Z,74.50
2018-05-16T00:09:47.763Z,74.20
2018-05-16T00:14:50.591Z,72.90
2018-05-16T00:19:53.552Z,72.00
2018-05-16T00:24:56.418Z,72.60
2018-05-16T00:29:59.256Z,72.00
2018-05-16T00:35:02.577Z,72.30
2018-05-16T00:40:07.101Z,72.30
2018-05-16T00:45:09.789Z,72.30
2018-05-16T00:50:14.014Z,72.40
2018-05-16T00:55:17.812Z,72.30
2018-05-16T01:00:23.073Z,72.30
2018-05-16T01:05:27.265Z,72.30
2018-05-16T01:10:30.315Z,72.20
2018-05-16T01:15:34.323Z,72.60
2018-05-16T01:20:37.695Z,72.60
2018-05-16T01:25:40.600Z,72.30
2018-05-16T01:30:44.007Z,72.50
2018-05-16T01:35:46.674Z,72.50
2018-05-16T01:40:49.682Z,72.30
2018-05-16T01:45:52.342Z,72.50
2018-05-16T01:50:55.156Z,72.20
2018-05-16T01:55:58.184Z,72.30
2018-05-16T02:01:01.098Z,73.00
2018-05-16T02:06:04.242Z,73.20
2018-05-16T02:11:06.966Z,73.40
2018-05-16T02:16:10.530Z,72.80
2018-05-16T02:21:14.031Z,73.20
2018-05-16T02:26:18.683Z,73.40
2018-05-16T02:31:21.421Z,73.60
2018-05-16T02:36:24.197Z,73.30
2018-05-16T02:41:27.832Z,73.20
2018-05-16T02:46:31.360Z,73.40
2018-05-16T02:51:34.180Z,73.10
2018-05-16T02:56:37.568Z,73.20
2018-05-16T03:01:40.232Z,73.00
2018-05-16T03:06:42.899Z,73.10
2018-05-16T03:11:45.880Z,73.10
2018-05-16T03:16:48.867Z,73.30
2018-05-16T03:21:51.962Z,73.10
2018-05-16T03:26:54.655Z,73.70
2018-05-16T03:31:57.541Z,73.30
2018-05-16T03:37:00.270Z,73.60
2018-05-16T03:42:03.997Z,73.00
2018-05-16T03:47:07.512Z,73.20
2018-05-16T03:52:10.200Z,74.00
2018-05-16T03:57:24.816Z,73.30
2018-05-16T04:02:40.328Z,74.20
2018-05-16T04:07:44.861Z,74.40
2018-05-16T04:12:48.230Z,74.00
2018-05-16T04:17:53.346Z,74.50
2018-05-16T04:22:56.919Z,74.30
2018-05-16T04:28:00.807Z,74.90
2018-05-16T04:33:04.326Z,75.10
2018-05-16T04:38:07.760Z,75.70
2018-05-16T04:43:11.922Z,75.00
2018-05-16T04:48:14.771Z,74.90
2018-05-16T04:53:17.791Z,75.60
2018-05-16T04:58:20.926Z,75.60
2018-05-16T05:03:23.558Z,75.80
2018-05-16T05:08:26.345Z,75.80
2018-05-16T05:13:29.826Z,75.90
2018-05-16T05:18:32.604Z,75.80
2018-05-16T05:23:35.134Z,76.00
2018-05-16T05:28:37.870Z,76.10
2018-05-16T05:33:40.547Z,76.40
2018-05-16T05:38:43.174Z,76.80
2018-05-16T05:43:46.557Z,76.50
2018-05-16T05:48:52.437Z,76.40
2018-05-16T05:53:55.097Z,76.40
2018-05-16T05:58:57.950Z,76.60
2018-05-16T06:04:00.668Z,76.80
2018-05-16T06:09:03.333Z,76.50
2018-05-16T06:14:05.958Z,76.80
2018-05-16T06:19:09.458Z,76.70
2018-05-16T06:24:12.036Z,76.60
2018-05-16T06:29:14.623Z,76.90
2018-05-16T06:34:17.323Z,77.00
2018-05-16T06:39:20.021Z,76.60
2018-05-16T06:44:23.193Z,76.30
2018-05-16T06:49:26.860Z,76.60
2018-05-16T06:54:29.506Z,76.90
2018-05-16T06:59:32.462Z,77.00
2018-05-16T07:04:35.057Z,75.60
2018-05-16T07:09:37.647Z,76.50
2018-05-16T07:14:40.495Z,77.30
2018-05-16T07:19:43.139Z,77.00
2018-05-16T07:24:45.919Z,77.60
2018-05-16T07:29:49.493Z,78.20
2018-05-16T07:34:53.284Z,77.80
2018-05-16T07:39:56.750Z,79.00
2018-05-16T07:44:59.714Z,78.90
2018-05-16T07:50:02.570Z,79.10
2018-05-16T07:55:05.347Z,79.50
2018-05-16T08:00:09.009Z,80.30
2018-05-16T08:05:11.923Z,80.20
2018-05-16T08:10:15.439Z,80.70
2018-05-16T08:15:18.127Z,81.10
2018-05-16T08:20:21.783Z,81.50
2018-05-16T08:25:25.470Z,82.10
2018-05-16T08:30:28.856Z,79.80
2018-05-16T08:35:32.347Z,80.80
2018-05-16T08:40:35.010Z,80.70
2018-05-16T08:45:38.372Z,80.60
2018-05-16T08:50:41.912Z,79.30
2018-05-16T08:55:46.035Z,79.20
2018-05-16T09:00:48.955Z,78.40
2018-05-16T09:05:51.614Z,78.00
2018-05-16T09:10:54.660Z,77.60
2018-05-16T09:15:57.371Z,77.50
2018-05-16T09:21:00.170Z,77.50
2018-05-16T09:26:02.862Z,76.50
2018-05-16T09:31:06.302Z,75.90
2018-05-16T09:36:09.039Z,75.90
2018-05-16T09:41:12.318Z,76.00
2018-05-16T09:46:16.217Z,75.80
2018-05-16T09:51:19.445Z,75.80
2018-05-16T09:56:22.674Z,75.90
2018-05-16T10:01:25.928Z,76.00
2018-05-16T10:11:37.523Z,75.70
2018-05-16T10:16:41.102Z,76.90
2018-05-16T10:21:45.742Z,76.20
2018-05-16T10:26:48.429Z,74.70
2018-05-16T10:31:51.211Z,73.10
2018-05-16T10:36:53.874Z,71.50
2018-05-16T10:41:57.315Z,71.10
2018-05-16T10:47:00.038Z,71.60
2018-05-16T10:52:02.686Z,71.80
2018-05-16T10:57:05.422Z,70.70
2018-05-16T11:02:08.044Z,70.20
2018-05-16T11:07:10.788Z,69.80
2018-05-16T11:12:14.246Z,69.20
2018-05-16T11:17:18.709Z,67.80
2018-05-16T11:22:22.220Z,69.30
2018-05-16T11:27:24.825Z,68.40
2018-05-16T11:32:27.453Z,70.20
2018-05-16T11:37:30.101Z,69.50
2018-05-16T11:42:32.804Z,69.40
2018-05-16T11:47:35.598Z,68.90
2018-05-16T11:52:38.876Z,68.50
2018-05-16T11:57:41.485Z,69.10
2018-05-16T12:02:44.783Z,69.30
2018-05-16T12:07:47.335Z,69.90
2018-05-16T12:12:49.956Z,70.30
2018-05-16T12:17:52.557Z,70.60
2018-05-16T12:22:55.189Z,70.40
2018-05-16T12:28:00.418Z,68.90
2018-05-16T12:33:04.174Z,68.90
2018-05-16T12:38:07.629Z,68.90
2018-05-16T12:43:29.134Z,69.50
2018-05-16T12:48:31.792Z,71.70
2018-05-16T12:53:34.485Z,72.50
2018-05-16T12:58:37.200Z,72.80
2018-05-16T13:03:40.093Z,73.40
2018-05-16T13:08:42.865Z,73.30
2018-05-16T13:13:45.439Z,73.20
2018-05-16T13:18:48.026Z,74.00
2018-05-16T13:23:51.417Z,75.20
2018-05-16T13:28:54.210Z,75.00
2018-05-16T13:33:56.825Z,74.70
2018-05-16T13:38:59.431Z,75.70
2018-05-16T13:44:02.019Z,75.10
2018-05-16T13:49:04.812Z,74.40
2018-05-16T13:54:07.432Z,73.10
2018-05-16T13:59:10.966Z,73.20
2018-05-16T14:04:13.602Z,73.70
2018-05-16T14:09:16.249Z,74.70
2018-05-16T14:14:19.539Z,76.00
2018-05-16T14:19:22.270Z,76.60
2018-05-16T14:24:24.928Z,76.60
2018-05-16T14:29:27.604Z,77.70
2018-05-16T14:34:31.108Z,76.80
2018-05-16T14:39:33.830Z,76.70
2018-05-16T14:44:36.672Z,77.40
2018-05-16T14:49:39.381Z,76.30
2018-05-16T14:54:42.017Z,77.00
2018-05-16T14:59:45.010Z,77.20
2018-05-16T15:04:47.939Z,77.50
2018-05-16T15:09:50.550Z,77.50
2018-05-16T15:14:53.271Z,78.00
2018-05-16T15:19:55.885Z,78.90
2018-05-16T15:24:58.504Z,78.30
2018-05-16T15:30:02.297Z,77.60
2018-05-16T15:35:05.658Z,76.40
2018-05-16T15:40:08.300Z,76.40
2018-05-16T15:45:11.902Z,75.40
2018-05-16T15:50:14.629Z,76.30
2018-05-16T15:55:17.232Z,75.70
2018-05-16T16:00:20.575Z,75.60
2018-05-16T16:05:23.377Z,75.60
2018-05-16T16:10:26.680Z,75.60
2018-05-16T16:15:29.447Z,76.00
2018-05-16T16:20:34.005Z,76.70
2018-05-16T16:25:39.558Z,77.00
2018-05-16T16:30:45.538Z,78.00
2018-05-16T16:35:53.450Z,77.90
2018-05-16T16:40:56.991Z,77.50
2018-05-16T16:45:59.970Z,77.50
2018-05-16T16:51:06.534Z,77.50
2018-05-16T17:01:21.731Z,77.30
2018-05-16T17:06:29.701Z,77.80
2018-05-16T17:11:34.983Z,77.80
2018-05-16T17:16:38.031Z,77.60
2018-05-16T17:21:41.542Z,78.10
2018-05-16T17:26:44.624Z,77.90
2018-05-16T17:31:48.889Z,77.40
2018-05-16T17:36:52.692Z,77.60
2018-05-16T17:41:56.390Z,77.80
2018-05-16T17:47:02.228Z,78.70
2018-05-16T17:52:07.094Z,78.50
2018-05-16T17:57:11.881Z,78.20
2018-05-16T18:02:14.599Z,79.10
2018-05-16T18:07:17.634Z,79.60
2018-05-16T18:12:22.273Z,79.60
2018-05-16T18:17:30.663Z,79.50
2018-05-16T18:22:33.794Z,80.00
2018-05-16T18:32:45.560Z,80.30
2018-05-16T18:37:48.937Z,80.10
2018-05-16T18:42:53.647Z,80.20
2018-05-16T18:47:58.799Z,80.20
2018-05-16T18:53:03.460Z,80.10
2018-05-16T18:58:07.000Z,80.10
2018-05-16T19:03:09.949Z,80.10
2018-05-16T19:08:13.448Z,80.00
2018-05-16T19:13:16.887Z,79.50
2018-05-16T19:18:20.034Z,79.40
2018-05-16T19:23:22.764Z,79.00
2018-05-16T19:28:25.836Z,79.00
2018-05-16T19:33:29.590Z,78.90
2018-05-16T19:38:32.439Z,79.10
2018-05-16T19:43:35.253Z,79.20
2018-05-16T19:48:38.447Z,78.70
2018-05-16T19:53:41.288Z,78.50
2018-05-16T19:58:44.129Z,78.60
2018-05-16T20:03:46.858Z,78.90
2018-05-16T20:08:51.184Z,78.90
2018-05-16T20:13:53.918Z,79.20
2018-05-16T20:18:56.773Z,79.20
2018-05-16T20:24:00.150Z,79.40
2018-05-16T20:29:02.932Z,79.70
2018-05-16T20:34:06.555Z,79.90
2018-05-16T20:39:09.455Z,79.90
2018-05-16T20:44:12.878Z,79.80
2018-05-16T20:49:16.524Z,81.00
2018-05-16T20:54:20.082Z,80.70
2018-05-16T20:59:22.880Z,80.60
2018-05-16T21:04:25.718Z,80.90
2018-05-16T21:09:30.402Z,80.50
2018-05-16T21:14:33.956Z,81.10
2018-05-16T21:19:36.757Z,81.00
2018-05-16T21:24:39.824Z,81.80
2018-05-16T21:29:44.024Z,82.00
2018-05-16T21:34:46.802Z,82.10
2018-05-16T21:39:50.400Z,82.20
2018-05-16T21:50:02.260Z,82.60
2018-05-16T21:55:05.457Z,82.10
2018-05-16T22:00:08.931Z,82.70
2018-05-16T22:05:12.441Z,82.20
2018-05-16T22:10:15.827Z,82.10
2018-05-16T22:15:19.148Z,82.90
2018-05-16T22:20:21.853Z,82.50
2018-05-16T22:25:24.598Z,82.80
2018-05-16T22:30:33.395Z,82.70
2018-05-16T22:35:41.932Z,83.20
2018-05-16T22:40:50.588Z,83.40
2018-05-16T22:45:56.583Z,84.20
2018-05-16T22:51:00.187Z,83.60
2018-05-16T22:56:02.999Z,83.00
2018-05-16T23:01:05.985Z,82.80
2018-05-16T23:06:08.747Z,83.10
2018-05-16T23:11:11.535Z,83.10
2018-05-16T23:16:14.272Z,82.90
2018-05-16T23:21:18.397Z,83.40
2018-05-16T23:26:21.538Z,83.20
2018-05-16T23:31:24.278Z,83.20
2018-05-16T23:36:27.664Z,84.50
2018-05-16T23:41:30.492Z,84.40
2018-05-16T23:46:33.611Z,83.50
2018-05-16T23:51:36.468Z,84.20
2018-05-16T23:56:39.326Z,84.00
